sensor_id;sensor_type;location;lat;lon;timestamp;temperature;humidity
16032;DHT22;8120;48.308;8.914;2022-08-16T00:02:07;17.00;71.90
16032;DHT22;8120;48.308;8.914;2022-08-16T00:04:38;17.10;71.80
16032;DHT22;8120;48.308;8.914;2022-08-16T00:07:06;17.10;71.50
16032;DHT22;8120;48.308;8.914;2022-08-16T00:09:35;17.20;71.10
16032;DHT22;8120;48.308;8.914;2022-08-16T00:12:07;17.30;71.10
16032;DHT22;8120;48.308;8.914;2022-08-16T00:14:36;17.20;71.30
16032;DHT22;8120;48.308;8.914;2022-08-16T00:17:04;17.20;71.30
16032;DHT22;8120;48.308;8.914;2022-08-16T00:19:44;17.30;71.10
16032;DHT22;8120;48.308;8.914;2022-08-16T00:22:14;17.30;71.00
16032;DHT22;8120;48.308;8.914;2022-08-16T00:24:46;17.40;70.90
16032;DHT22;8120;48.308;8.914;2022-08-16T00:27:17;17.40;70.60
16032;DHT22;8120;48.308;8.914;2022-08-16T00:29:46;17.40;70.70
16032;DHT22;8120;48.308;8.914;2022-08-16T00:32:34;17.50;70.50
16032;DHT22;8120;48.308;8.914;2022-08-16T00:35:05;17.50;70.30
16032;DHT22;8120;48.308;8.914;2022-08-16T00:37:41;17.60;70.00
16032;DHT22;8120;48.308;8.914;2022-08-16T00:40:34;17.60;69.90
16032;DHT22;8120;48.308;8.914;2022-08-16T00:43:18;17.60;69.90
16032;DHT22;8120;48.308;8.914;2022-08-16T00:45:53;17.60;69.60
16032;DHT22;8120;48.308;8.914;2022-08-16T00:48:28;17.60;69.90
16032;DHT22;8120;48.308;8.914;2022-08-16T00:51:13;17.60;69.80
16032;DHT22;8120;48.308;8.914;2022-08-16T00:53:44;17.50;70.10
16032;DHT22;8120;48.308;8.914;2022-08-16T00:56:14;17.40;70.60
16032;DHT22;8120;48.308;8.914;2022-08-16T00:59:04;17.30;70.90
16032;DHT22;8120;48.308;8.914;2022-08-16T01:01:33;17.20;70.90
16032;DHT22;8120;48.308;8.914;2022-08-16T01:04:03;17.30;70.80
16032;DHT22;8120;48.308;8.914;2022-08-16T01:06:51;17.20;70.90
16032;DHT22;8120;48.308;8.914;2022-08-16T01:09:28;17.20;71.00
16032;DHT22;8120;48.308;8.914;2022-08-16T01:12:00;17.10;71.30
16032;DHT22;8120;48.308;8.914;2022-08-16T01:14:32;17.00;71.60
16032;DHT22;8120;48.308;8.914;2022-08-16T01:17:03;17.00;71.80
16032;DHT22;8120;48.308;8.914;2022-08-16T01:19:36;17.00;71.80
16032;DHT22;8120;48.308;8.914;2022-08-16T01:22:11;16.90;72.10
16032;DHT22;8120;48.308;8.914;2022-08-16T01:25:07;16.90;72.20
16032;DHT22;8120;48.308;8.914;2022-08-16T01:27:39;16.80;72.40
16032;DHT22;8120;48.308;8.914;2022-08-16T01:30:12;16.70;72.70
16032;DHT22;8120;48.308;8.914;2022-08-16T01:32:48;16.60;73.20
16032;DHT22;8120;48.308;8.914;2022-08-16T01:35:31;16.50;73.70
16032;DHT22;8120;48.308;8.914;2022-08-16T01:38:16;16.50;73.60
16032;DHT22;8120;48.308;8.914;2022-08-16T01:40:48;16.40;74.10
16032;DHT22;8120;48.308;8.914;2022-08-16T01:43:16;16.40;74.40
16032;DHT22;8120;48.308;8.914;2022-08-16T01:45:45;16.30;74.50
16032;DHT22;8120;48.308;8.914;2022-08-16T01:48:25;16.30;74.70
16032;DHT22;8120;48.308;8.914;2022-08-16T01:50:54;16.40;74.50
16032;DHT22;8120;48.308;8.914;2022-08-16T01:53:41;16.40;74.30
16032;DHT22;8120;48.308;8.914;2022-08-16T01:56:11;16.40;74.50
16032;DHT22;8120;48.308;8.914;2022-08-16T01:58:51;16.40;74.70
16032;DHT22;8120;48.308;8.914;2022-08-16T02:01:20;16.50;74.60
16032;DHT22;8120;48.308;8.914;2022-08-16T02:03:51;16.60;74.20
16032;DHT22;8120;48.308;8.914;2022-08-16T02:06:24;16.70;73.80
16032;DHT22;8120;48.308;8.914;2022-08-16T02:09:04;16.90;73.10
16032;DHT22;8120;48.308;8.914;2022-08-16T02:11:42;17.00;72.60
16032;DHT22;8120;48.308;8.914;2022-08-16T02:14:18;17.10;72.40
16032;DHT22;8120;48.308;8.914;2022-08-16T02:16:48;17.10;72.10
16032;DHT22;8120;48.308;8.914;2022-08-16T02:19:17;17.20;71.80
16032;DHT22;8120;48.308;8.914;2022-08-16T02:21:50;17.10;72.00
16032;DHT22;8120;48.308;8.914;2022-08-16T02:24:40;17.20;72.00
16032;DHT22;8120;48.308;8.914;2022-08-16T02:27:13;17.20;71.70
16032;DHT22;8120;48.308;8.914;2022-08-16T02:29:42;17.30;71.60
16032;DHT22;8120;48.308;8.914;2022-08-16T02:32:12;17.30;71.50
16032;DHT22;8120;48.308;8.914;2022-08-16T02:35:00;17.20;71.70
16032;DHT22;8120;48.308;8.914;2022-08-16T02:37:28;17.20;71.70
16032;DHT22;8120;48.308;8.914;2022-08-16T02:40:17;17.20;71.70
16032;DHT22;8120;48.308;8.914;2022-08-16T02:42:48;17.20;71.80
16032;DHT22;8120;48.308;8.914;2022-08-16T02:45:19;17.20;71.80
16032;DHT22;8120;48.308;8.914;2022-08-16T02:47:54;17.20;71.70
16032;DHT22;8120;48.308;8.914;2022-08-16T02:50:42;17.10;72.10
16032;DHT22;8120;48.308;8.914;2022-08-16T02:53:29;17.10;71.80
16032;DHT22;8120;48.308;8.914;2022-08-16T02:55:57;17.10;72.10
16032;DHT22;8120;48.308;8.914;2022-08-16T02:58:28;17.00;72.00
16032;DHT22;8120;48.308;8.914;2022-08-16T03:00:58;17.00;72.60
16032;DHT22;8120;48.308;8.914;2022-08-16T03:03:27;16.90;73.00
16032;DHT22;8120;48.308;8.914;2022-08-16T03:06:15;16.90;72.90
16032;DHT22;8120;48.308;8.914;2022-08-16T03:09:06;16.90;73.00
16032;DHT22;8120;48.308;8.914;2022-08-16T03:11:39;16.80;73.40
16032;DHT22;8120;48.308;8.914;2022-08-16T03:14:09;16.80;73.40
16032;DHT22;8120;48.308;8.914;2022-08-16T03:16:39;16.80;73.50
16032;DHT22;8120;48.308;8.914;2022-08-16T03:19:26;16.80;73.70
16032;DHT22;8120;48.308;8.914;2022-08-16T03:22:15;16.80;73.80
16032;DHT22;8120;48.308;8.914;2022-08-16T03:24:56;16.70;74.20
16032;DHT22;8120;48.308;8.914;2022-08-16T03:27:24;16.70;74.10
16032;DHT22;8120;48.308;8.914;2022-08-16T03:29:59;16.60;74.40
16032;DHT22;8120;48.308;8.914;2022-08-16T03:32:42;16.60;74.50
16032;DHT22;8120;48.308;8.914;2022-08-16T03:35:13;16.50;74.80
16032;DHT22;8120;48.308;8.914;2022-08-16T03:37:44;16.50;75.10
16032;DHT22;8120;48.308;8.914;2022-08-16T03:40:29;16.40;75.50
16032;DHT22;8120;48.308;8.914;2022-08-16T03:42:59;16.30;75.80
16032;DHT22;8120;48.308;8.914;2022-08-16T03:45:49;16.30;75.80
16032;DHT22;8120;48.308;8.914;2022-08-16T03:48:20;16.30;76.00
16032;DHT22;8120;48.308;8.914;2022-08-16T03:51:04;16.30;75.60
16032;DHT22;8120;48.308;8.914;2022-08-16T03:53:35;16.30;75.90
16032;DHT22;8120;48.308;8.914;2022-08-16T03:56:04;16.20;76.30
16032;DHT22;8120;48.308;8.914;2022-08-16T03:58:44;16.10;76.50
16032;DHT22;8120;48.308;8.914;2022-08-16T04:01:15;16.00;76.70
16032;DHT22;8120;48.308;8.914;2022-08-16T04:03:43;16.00;77.00
16032;DHT22;8120;48.308;8.914;2022-08-16T04:06:11;16.00;76.70
16032;DHT22;8120;48.308;8.914;2022-08-16T04:08:41;16.10;76.30
16032;DHT22;8120;48.308;8.914;2022-08-16T04:11:10;16.00;76.50
16032;DHT22;8120;48.308;8.914;2022-08-16T04:13:42;15.90;77.00
16032;DHT22;8120;48.308;8.914;2022-08-16T04:16:31;15.80;77.40
16032;DHT22;8120;48.308;8.914;2022-08-16T04:19:00;15.80;77.30
16032;DHT22;8120;48.308;8.914;2022-08-16T04:21:30;15.70;77.70
16032;DHT22;8120;48.308;8.914;2022-08-16T04:23:59;15.80;77.70
16032;DHT22;8120;48.308;8.914;2022-08-16T04:26:28;15.80;77.50
16032;DHT22;8120;48.308;8.914;2022-08-16T04:28:59;15.80;77.40
16032;DHT22;8120;48.308;8.914;2022-08-16T04:31:49;15.80;77.40
16032;DHT22;8120;48.308;8.914;2022-08-16T04:34:25;15.80;77.20
16032;DHT22;8120;48.308;8.914;2022-08-16T04:36:53;15.80;77.10
16032;DHT22;8120;48.308;8.914;2022-08-16T04:39:22;15.80;77.50
16032;DHT22;8120;48.308;8.914;2022-08-16T04:42:10;15.80;77.20
16032;DHT22;8120;48.308;8.914;2022-08-16T04:44:38;15.90;77.50
16032;DHT22;8120;48.308;8.914;2022-08-16T04:47:24;16.20;75.60
16032;DHT22;8120;48.308;8.914;2022-08-16T04:49:57;16.50;74.70
16032;DHT22;8120;48.308;8.914;2022-08-16T04:52:26;16.60;74.00
16032;DHT22;8120;48.308;8.914;2022-08-16T04:55:05;16.90;73.30
16032;DHT22;8120;48.308;8.914;2022-08-16T04:57:35;17.00;72.60
16032;DHT22;8120;48.308;8.914;2022-08-16T05:00:07;16.90;72.50
16032;DHT22;8120;48.308;8.914;2022-08-16T05:03:00;16.90;72.50
16032;DHT22;8120;48.308;8.914;2022-08-16T05:05:36;16.80;72.90
16032;DHT22;8120;48.308;8.914;2022-08-16T05:08:21;17.20;71.70
16032;DHT22;8120;48.308;8.914;2022-08-16T05:10:56;17.50;70.20
16032;DHT22;8120;48.308;8.914;2022-08-16T05:13:26;17.90;69.00
16032;DHT22;8120;48.308;8.914;2022-08-16T05:16:06;18.10;68.50
16032;DHT22;8120;48.308;8.914;2022-08-16T05:18:38;18.30;67.40
16032;DHT22;8120;48.308;8.914;2022-08-16T05:21:08;18.50;66.70
16032;DHT22;8120;48.308;8.914;2022-08-16T05:23:38;18.60;66.60
16032;DHT22;8120;48.308;8.914;2022-08-16T05:26:06;18.70;65.80
16032;DHT22;8120;48.308;8.914;2022-08-16T05:28:46;19.10;64.50
16032;DHT22;8120;48.308;8.914;2022-08-16T05:31:21;19.50;63.50
16032;DHT22;8120;48.308;8.914;2022-08-16T05:33:57;19.60;62.90
16032;DHT22;8120;48.308;8.914;2022-08-16T05:36:25;19.80;62.90
16032;DHT22;8120;48.308;8.914;2022-08-16T05:39:03;20.10;61.50
16032;DHT22;8120;48.308;8.914;2022-08-16T05:41:31;20.20;61.40
16032;DHT22;8120;48.308;8.914;2022-08-16T05:44:12;20.30;60.60
16032;DHT22;8120;48.308;8.914;2022-08-16T05:46:51;20.50;60.60
16032;DHT22;8120;48.308;8.914;2022-08-16T05:49:21;20.70;59.70
16032;DHT22;8120;48.308;8.914;2022-08-16T05:51:49;20.60;61.30
16032;DHT22;8120;48.308;8.914;2022-08-16T05:54:17;20.90;59.50
16032;DHT22;8120;48.308;8.914;2022-08-16T05:56:52;20.70;58.90
16032;DHT22;8120;48.308;8.914;2022-08-16T05:59:22;21.30;57.60
16032;DHT22;8120;48.308;8.914;2022-08-16T06:01:52;21.60;57.00
16032;DHT22;8120;48.308;8.914;2022-08-16T06:04:22;21.40;57.20
16032;DHT22;8120;48.308;8.914;2022-08-16T06:07:03;21.60;57.60
16032;DHT22;8120;48.308;8.914;2022-08-16T06:09:35;21.30;58.20
16032;DHT22;8120;48.308;8.914;2022-08-16T06:12:10;21.30;58.50
16032;DHT22;8120;48.308;8.914;2022-08-16T06:14:55;21.60;56.40
16032;DHT22;8120;48.308;8.914;2022-08-16T06:17:25;21.70;57.30
16032;DHT22;8120;48.308;8.914;2022-08-16T06:20:13;22.00;56.80
16032;DHT22;8120;48.308;8.914;2022-08-16T06:22:49;22.20;54.80
16032;DHT22;8120;48.308;8.914;2022-08-16T06:25:31;22.00;55.10
16032;DHT22;8120;48.308;8.914;2022-08-16T06:28:07;22.20;55.30
16032;DHT22;8120;48.308;8.914;2022-08-16T06:30:43;22.10;55.80
16032;DHT22;8120;48.308;8.914;2022-08-16T06:33:12;22.10;55.20
16032;DHT22;8120;48.308;8.914;2022-08-16T06:35:50;22.30;54.90
16032;DHT22;8120;48.308;8.914;2022-08-16T06:38:25;21.90;55.70
16032;DHT22;8120;48.308;8.914;2022-08-16T06:41:01;21.80;56.50
16032;DHT22;8120;48.308;8.914;2022-08-16T06:43:32;21.90;56.40
16032;DHT22;8120;48.308;8.914;2022-08-16T06:46:02;21.90;55.90
16032;DHT22;8120;48.308;8.914;2022-08-16T06:48:31;22.20;54.70
16032;DHT22;8120;48.308;8.914;2022-08-16T06:51:01;22.80;53.30
16032;DHT22;8120;48.308;8.914;2022-08-16T06:53:30;22.20;55.40
16032;DHT22;8120;48.308;8.914;2022-08-16T06:56:03;22.70;54.10
16032;DHT22;8120;48.308;8.914;2022-08-16T06:58:49;22.70;53.70
16032;DHT22;8120;48.308;8.914;2022-08-16T07:01:17;22.40;54.70
16032;DHT22;8120;48.308;8.914;2022-08-16T07:04:05;22.90;53.40
16032;DHT22;8120;48.308;8.914;2022-08-16T07:06:39;22.90;52.70
16032;DHT22;8120;48.308;8.914;2022-08-16T07:09:09;22.80;53.30
16032;DHT22;8120;48.308;8.914;2022-08-16T07:11:37;23.10;52.70
16032;DHT22;8120;48.308;8.914;2022-08-16T07:14:17;22.40;54.00
16032;DHT22;8120;48.308;8.914;2022-08-16T07:16:54;22.60;53.90
16032;DHT22;8120;48.308;8.914;2022-08-16T07:19:24;22.90;53.30
16032;DHT22;8120;48.308;8.914;2022-08-16T07:22:14;23.50;51.70
16032;DHT22;8120;48.308;8.914;2022-08-16T07:25:02;23.00;52.20
16032;DHT22;8120;48.308;8.914;2022-08-16T07:27:30;22.20;54.20
16032;DHT22;8120;48.308;8.914;2022-08-16T07:30:05;22.90;53.50
16032;DHT22;8120;48.308;8.914;2022-08-16T07:32:54;22.80;53.40
16032;DHT22;8120;48.308;8.914;2022-08-16T07:35:23;23.60;51.70
16032;DHT22;8120;48.308;8.914;2022-08-16T07:37:52;23.30;52.40
16032;DHT22;8120;48.308;8.914;2022-08-16T07:40:21;23.50;51.50
16032;DHT22;8120;48.308;8.914;2022-08-16T07:43:09;23.30;51.80
16032;DHT22;8120;48.308;8.914;2022-08-16T07:45:37;23.70;51.30
16032;DHT22;8120;48.308;8.914;2022-08-16T07:48:08;22.70;54.00
16032;DHT22;8120;48.308;8.914;2022-08-16T07:50:38;23.10;53.10
16032;DHT22;8120;48.308;8.914;2022-08-16T07:53:27;22.80;53.50
16032;DHT22;8120;48.308;8.914;2022-08-16T07:55:57;22.60;54.70
16032;DHT22;8120;48.308;8.914;2022-08-16T07:58:26;22.60;53.80
16032;DHT22;8120;48.308;8.914;2022-08-16T08:01:02;22.50;53.60
16032;DHT22;8120;48.308;8.914;2022-08-16T08:03:37;22.70;53.70
16032;DHT22;8120;48.308;8.914;2022-08-16T08:06:10;23.10;52.70
16032;DHT22;8120;48.308;8.914;2022-08-16T08:08:42;22.40;53.80
16032;DHT22;8120;48.308;8.914;2022-08-16T08:11:18;22.30;54.30
16032;DHT22;8120;48.308;8.914;2022-08-16T08:13:47;22.40;54.30
16032;DHT22;8120;48.308;8.914;2022-08-16T08:16:16;23.70;51.90
16032;DHT22;8120;48.308;8.914;2022-08-16T08:18:46;23.60;51.20
16032;DHT22;8120;48.308;8.914;2022-08-16T08:21:22;22.50;53.10
16032;DHT22;8120;48.308;8.914;2022-08-16T08:23:54;22.20;53.90
16032;DHT22;8120;48.308;8.914;2022-08-16T08:26:24;22.30;53.70
16032;DHT22;8120;48.308;8.914;2022-08-16T08:28:54;22.30;53.50
16032;DHT22;8120;48.308;8.914;2022-08-16T08:31:26;23.00;52.40
16032;DHT22;8120;48.308;8.914;2022-08-16T08:33:54;23.00;51.50
16032;DHT22;8120;48.308;8.914;2022-08-16T08:36:26;22.50;52.10
16032;DHT22;8120;48.308;8.914;2022-08-16T08:39:02;23.20;51.00
16032;DHT22;8120;48.308;8.914;2022-08-16T08:41:39;23.60;49.80
16032;DHT22;8120;48.308;8.914;2022-08-16T08:44:08;22.70;51.70
16032;DHT22;8120;48.308;8.914;2022-08-16T08:46:57;23.00;51.60
16032;DHT22;8120;48.308;8.914;2022-08-16T08:49:28;23.90;49.60
16032;DHT22;8120;48.308;8.914;2022-08-16T08:52:13;24.70;47.50
16032;DHT22;8120;48.308;8.914;2022-08-16T08:55:03;25.30;46.10
16032;DHT22;8120;48.308;8.914;2022-08-16T08:57:37;26.10;44.60
16032;DHT22;8120;48.308;8.914;2022-08-16T09:00:07;26.10;44.20
16032;DHT22;8120;48.308;8.914;2022-08-16T09:02:41;25.70;45.60
16032;DHT22;8120;48.308;8.914;2022-08-16T09:05:12;26.40;44.50
16032;DHT22;8120;48.308;8.914;2022-08-16T09:07:42;26.90;43.00
16032;DHT22;8120;48.308;8.914;2022-08-16T09:10:32;26.70;43.00
16032;DHT22;8120;48.308;8.914;2022-08-16T09:13:05;26.90;43.60
16032;DHT22;8120;48.308;8.914;2022-08-16T09:15:36;25.60;44.70
16032;DHT22;8120;48.308;8.914;2022-08-16T09:18:05;24.60;46.70
16032;DHT22;8120;48.308;8.914;2022-08-16T09:20:52;25.10;45.60
16032;DHT22;8120;48.308;8.914;2022-08-16T09:23:26;25.10;46.20
16032;DHT22;8120;48.308;8.914;2022-08-16T09:25:56;25.10;45.30
16032;DHT22;8120;48.308;8.914;2022-08-16T09:28:24;24.60;46.60
16032;DHT22;8120;48.308;8.914;2022-08-16T09:31:15;25.90;43.80
16032;DHT22;8120;48.308;8.914;2022-08-16T09:33:43;25.00;44.70
16032;DHT22;8120;48.308;8.914;2022-08-16T09:36:18;25.20;44.90
16032;DHT22;8120;48.308;8.914;2022-08-16T09:38:58;26.20;43.70
16032;DHT22;8120;48.308;8.914;2022-08-16T09:41:31;27.20;42.30
16032;DHT22;8120;48.308;8.914;2022-08-16T09:43:59;26.70;42.00
16032;DHT22;8120;48.308;8.914;2022-08-16T09:46:49;26.00;43.70
16032;DHT22;8120;48.308;8.914;2022-08-16T09:49:23;25.60;44.10
16032;DHT22;8120;48.308;8.914;2022-08-16T09:52:03;24.70;46.20
16032;DHT22;8120;48.308;8.914;2022-08-16T09:54:31;24.80;45.80
16032;DHT22;8120;48.308;8.914;2022-08-16T09:57:01;24.80;45.60
16032;DHT22;8120;48.308;8.914;2022-08-16T09:59:29;24.90;44.90
16032;DHT22;8120;48.308;8.914;2022-08-16T10:02:04;24.60;45.80
16032;DHT22;8120;48.308;8.914;2022-08-16T10:04:53;25.40;44.70
16032;DHT22;8120;48.308;8.914;2022-08-16T10:07:21;26.20;42.80
16032;DHT22;8120;48.308;8.914;2022-08-16T10:09:49;26.20;43.00
16032;DHT22;8120;48.308;8.914;2022-08-16T10:12:24;26.30;42.60
16032;DHT22;8120;48.308;8.914;2022-08-16T10:15:10;26.60;42.90
16032;DHT22;8120;48.308;8.914;2022-08-16T10:17:42;27.70;40.80
16032;DHT22;8120;48.308;8.914;2022-08-16T10:20:29;28.20;39.30
16032;DHT22;8120;48.308;8.914;2022-08-16T10:22:57;28.70;39.20
16032;DHT22;8120;48.308;8.914;2022-08-16T10:25:32;28.40;38.80
16032;DHT22;8120;48.308;8.914;2022-08-16T10:28:21;28.60;39.00
16032;DHT22;8120;48.308;8.914;2022-08-16T10:30:55;28.40;39.20
16032;DHT22;8120;48.308;8.914;2022-08-16T10:33:25;28.00;39.60
16032;DHT22;8120;48.308;8.914;2022-08-16T10:36:00;27.20;40.70
16032;DHT22;8120;48.308;8.914;2022-08-16T10:38:29;26.60;41.30
16032;DHT22;8120;48.308;8.914;2022-08-16T10:41:02;26.80;41.40
16032;DHT22;8120;48.308;8.914;2022-08-16T10:43:31;27.30;40.50
16032;DHT22;8120;48.308;8.914;2022-08-16T10:45:59;27.10;40.90
16032;DHT22;8120;48.308;8.914;2022-08-16T10:48:27;27.60;40.50
16032;DHT22;8120;48.308;8.914;2022-08-16T10:50:57;27.80;39.70
16032;DHT22;8120;48.308;8.914;2022-08-16T10:53:26;27.20;40.70
16032;DHT22;8120;48.308;8.914;2022-08-16T10:56:00;27.10;40.90
16032;DHT22;8120;48.308;8.914;2022-08-16T10:58:29;26.90;40.80
16032;DHT22;8120;48.308;8.914;2022-08-16T11:01:02;27.40;40.10
16032;DHT22;8120;48.308;8.914;2022-08-16T11:03:51;27.90;38.60
16032;DHT22;8120;48.308;8.914;2022-08-16T11:06:23;27.00;40.30
16032;DHT22;8120;48.308;8.914;2022-08-16T11:08:53;26.90;41.30
16032;DHT22;8120;48.308;8.914;2022-08-16T11:11:42;26.70;41.50
16032;DHT22;8120;48.308;8.914;2022-08-16T11:14:29;26.50;40.50
16032;DHT22;8120;48.308;8.914;2022-08-16T11:16:59;26.70;40.10
16032;DHT22;8120;48.308;8.914;2022-08-16T11:19:36;27.40;39.60
16032;DHT22;8120;48.308;8.914;2022-08-16T11:22:25;27.40;38.80
16032;DHT22;8120;48.308;8.914;2022-08-16T11:25:15;27.50;39.80
16032;DHT22;8120;48.308;8.914;2022-08-16T11:28:05;27.10;39.80
16032;DHT22;8120;48.308;8.914;2022-08-16T11:30:34;26.50;40.20
16032;DHT22;8120;48.308;8.914;2022-08-16T11:33:06;26.80;40.80
16032;DHT22;8120;48.308;8.914;2022-08-16T11:35:37;27.40;39.90
16032;DHT22;8120;48.308;8.914;2022-08-16T11:38:13;28.00;38.50
16032;DHT22;8120;48.308;8.914;2022-08-16T11:41:01;27.30;40.00
16032;DHT22;8120;48.308;8.914;2022-08-16T11:43:31;28.00;38.80
16032;DHT22;8120;48.308;8.914;2022-08-16T11:46:02;28.80;37.60
16032;DHT22;8120;48.308;8.914;2022-08-16T11:48:52;28.90;37.10
16032;DHT22;8120;48.308;8.914;2022-08-16T11:51:20;28.20;38.40
16032;DHT22;8120;48.308;8.914;2022-08-16T11:53:48;28.30;37.60
16032;DHT22;8120;48.308;8.914;2022-08-16T11:56:17;28.50;37.50
16032;DHT22;8120;48.308;8.914;2022-08-16T11:59:05;28.10;37.90
16032;DHT22;8120;48.308;8.914;2022-08-16T12:01:33;28.00;37.80
16032;DHT22;8120;48.308;8.914;2022-08-16T12:04:23;27.60;38.10
16032;DHT22;8120;48.308;8.914;2022-08-16T12:06:51;28.00;37.60
16032;DHT22;8120;48.308;8.914;2022-08-16T12:09:20;28.50;37.10
16032;DHT22;8120;48.308;8.914;2022-08-16T12:11:50;29.00;36.80
16032;DHT22;8120;48.308;8.914;2022-08-16T12:14:19;28.90;35.70
16032;DHT22;8120;48.308;8.914;2022-08-16T12:16:49;29.30;35.70
16032;DHT22;8120;48.308;8.914;2022-08-16T12:19:23;28.60;36.70
16032;DHT22;8120;48.308;8.914;2022-08-16T12:22:01;27.70;37.50
16032;DHT22;8120;48.308;8.914;2022-08-16T12:24:44;27.30;38.00
16032;DHT22;8120;48.308;8.914;2022-08-16T12:27:19;27.60;38.40
16032;DHT22;8120;48.308;8.914;2022-08-16T12:29:49;28.40;36.70
16032;DHT22;8120;48.308;8.914;2022-08-16T12:32:18;28.50;36.80
16032;DHT22;8120;48.308;8.914;2022-08-16T12:35:08;27.60;37.30
16032;DHT22;8120;48.308;8.914;2022-08-16T12:37:37;27.60;37.50
16032;DHT22;8120;48.308;8.914;2022-08-16T12:40:10;27.10;38.40
16032;DHT22;8120;48.308;8.914;2022-08-16T12:42:51;26.40;39.00
16032;DHT22;8120;48.308;8.914;2022-08-16T12:45:21;26.70;39.20
16032;DHT22;8120;48.308;8.914;2022-08-16T12:47:50;27.00;39.00
16032;DHT22;8120;48.308;8.914;2022-08-16T12:50:58;27.10;38.80
16032;DHT22;8120;48.308;8.914;2022-08-16T12:53:27;27.00;38.30
16032;DHT22;8120;48.308;8.914;2022-08-16T12:55:59;27.40;38.60
16032;DHT22;8120;48.308;8.914;2022-08-16T12:58:27;27.30;38.30
16032;DHT22;8120;48.308;8.914;2022-08-16T13:01:15;27.50;38.10
16032;DHT22;8120;48.308;8.914;2022-08-16T13:03:44;28.00;37.60
16032;DHT22;8120;48.308;8.914;2022-08-16T13:06:13;28.20;37.20
16032;DHT22;8120;48.308;8.914;2022-08-16T13:08:46;28.10;37.80
16032;DHT22;8120;48.308;8.914;2022-08-16T13:11:15;27.60;38.00
16032;DHT22;8120;48.308;8.914;2022-08-16T13:13:49;27.10;38.80
16032;DHT22;8120;48.308;8.914;2022-08-16T13:16:20;27.50;38.30
16032;DHT22;8120;48.308;8.914;2022-08-16T13:18:52;27.80;38.00
16032;DHT22;8120;48.308;8.914;2022-08-16T13:21:22;27.70;38.00
16032;DHT22;8120;48.308;8.914;2022-08-16T13:23:50;28.20;37.80
16032;DHT22;8120;48.308;8.914;2022-08-16T13:26:21;28.00;37.30
16032;DHT22;8120;48.308;8.914;2022-08-16T13:28:49;27.60;37.60
16032;DHT22;8120;48.308;8.914;2022-08-16T13:31:18;27.50;38.20
16032;DHT22;8120;48.308;8.914;2022-08-16T13:33:46;27.40;38.00
16032;DHT22;8120;48.308;8.914;2022-08-16T13:36:14;27.60;37.70
16032;DHT22;8120;48.308;8.914;2022-08-16T13:39:04;27.70;37.50
16032;DHT22;8120;48.308;8.914;2022-08-16T13:41:32;27.60;37.90
16032;DHT22;8120;48.308;8.914;2022-08-16T13:44:00;27.70;37.60
16032;DHT22;8120;48.308;8.914;2022-08-16T13:46:35;27.90;36.80
16032;DHT22;8120;48.308;8.914;2022-08-16T13:49:04;27.80;37.20
16032;DHT22;8120;48.308;8.914;2022-08-16T13:51:32;28.10;37.20
16032;DHT22;8120;48.308;8.914;2022-08-16T13:54:06;28.70;35.90
16032;DHT22;8120;48.308;8.914;2022-08-16T13:56:35;28.80;36.10
16032;DHT22;8120;48.308;8.914;2022-08-16T13:59:07;28.80;36.30
16032;DHT22;8120;48.308;8.914;2022-08-16T14:01:47;28.60;36.30
16032;DHT22;8120;48.308;8.914;2022-08-16T14:04:23;28.30;36.70
16032;DHT22;8120;48.308;8.914;2022-08-16T14:06:53;28.00;37.00
16032;DHT22;8120;48.308;8.914;2022-08-16T14:09:24;27.90;37.00
16032;DHT22;8120;48.308;8.914;2022-08-16T14:11:54;27.90;37.10
16032;DHT22;8120;48.308;8.914;2022-08-16T14:14:23;28.00;37.30
16032;DHT22;8120;48.308;8.914;2022-08-16T14:16:55;28.00;37.50
16032;DHT22;8120;48.308;8.914;2022-08-16T14:19:23;28.30;36.60
16032;DHT22;8120;48.308;8.914;2022-08-16T14:21:55;28.20;36.90
16032;DHT22;8120;48.308;8.914;2022-08-16T14:24:42;28.60;36.50
16032;DHT22;8120;48.308;8.914;2022-08-16T14:27:13;28.40;36.40
16032;DHT22;8120;48.308;8.914;2022-08-16T14:29:41;28.60;36.40
16032;DHT22;8120;48.308;8.914;2022-08-16T14:32:09;28.90;35.80
16032;DHT22;8120;48.308;8.914;2022-08-16T14:34:47;28.90;35.60
16032;DHT22;8120;48.308;8.914;2022-08-16T14:37:17;28.60;36.50
16032;DHT22;8120;48.308;8.914;2022-08-16T14:39:49;28.50;36.10
16032;DHT22;8120;48.308;8.914;2022-08-16T14:42:22;28.30;36.70
16032;DHT22;8120;48.308;8.914;2022-08-16T14:44:51;28.20;36.50
16032;DHT22;8120;48.308;8.914;2022-08-16T14:47:20;28.30;36.80
16032;DHT22;8120;48.308;8.914;2022-08-16T14:49:49;28.30;36.70
16032;DHT22;8120;48.308;8.914;2022-08-16T14:52:20;28.40;36.70
16032;DHT22;8120;48.308;8.914;2022-08-16T14:55:11;28.60;36.60
16032;DHT22;8120;48.308;8.914;2022-08-16T14:57:39;28.50;36.80
16032;DHT22;8120;48.308;8.914;2022-08-16T15:00:10;28.40;36.90
16032;DHT22;8120;48.308;8.914;2022-08-16T15:02:41;27.90;37.20
16032;DHT22;8120;48.308;8.914;2022-08-16T15:05:11;27.90;37.30
16032;DHT22;8120;48.308;8.914;2022-08-16T15:07:40;28.00;37.60
16032;DHT22;8120;48.308;8.914;2022-08-16T15:10:10;27.90;37.30
16032;DHT22;8120;48.308;8.914;2022-08-16T15:12:50;27.90;37.50
16032;DHT22;8120;48.308;8.914;2022-08-16T15:15:22;27.70;37.60
16032;DHT22;8120;48.308;8.914;2022-08-16T15:17:51;27.30;37.80
16032;DHT22;8120;48.308;8.914;2022-08-16T15:20:24;27.20;38.00
16032;DHT22;8120;48.308;8.914;2022-08-16T15:22:56;27.40;38.00
16032;DHT22;8120;48.308;8.914;2022-08-16T15:25:28;27.50;37.80
16032;DHT22;8120;48.308;8.914;2022-08-16T15:27:57;27.50;37.80
16032;DHT22;8120;48.308;8.914;2022-08-16T15:30:29;27.60;37.90
16032;DHT22;8120;48.308;8.914;2022-08-16T15:33:18;27.60;37.60
16032;DHT22;8120;48.308;8.914;2022-08-16T15:35:51;27.40;37.60
16032;DHT22;8120;48.308;8.914;2022-08-16T15:38:24;27.60;37.20
16032;DHT22;8120;48.308;8.914;2022-08-16T15:41:49;27.80;37.20
16032;DHT22;8120;48.308;8.914;2022-08-16T15:44:22;27.90;37.10
16032;DHT22;8120;48.308;8.914;2022-08-16T15:46:51;27.90;37.30
16032;DHT22;8120;48.308;8.914;2022-08-16T15:49:29;27.90;37.20
16032;DHT22;8120;48.308;8.914;2022-08-16T15:52:05;28.00;37.20
16032;DHT22;8120;48.308;8.914;2022-08-16T15:54:36;27.90;36.90
16032;DHT22;8120;48.308;8.914;2022-08-16T15:57:21;27.90;37.00
16032;DHT22;8120;48.308;8.914;2022-08-16T15:59:49;27.80;37.30
16032;DHT22;8120;48.308;8.914;2022-08-16T16:02:23;27.80;37.10
16032;DHT22;8120;48.308;8.914;2022-08-16T16:04:57;27.80;37.10
16032;DHT22;8120;48.308;8.914;2022-08-16T16:07:26;27.60;37.30
16032;DHT22;8120;48.308;8.914;2022-08-16T16:09:56;27.60;37.40
16032;DHT22;8120;48.308;8.914;2022-08-16T16:12:26;27.70;37.40
16032;DHT22;8120;48.308;8.914;2022-08-16T16:15:15;27.80;37.30
16032;DHT22;8120;48.308;8.914;2022-08-16T16:17:43;28.00;37.00
16032;DHT22;8120;48.308;8.914;2022-08-16T16:20:17;28.20;36.40
16032;DHT22;8120;48.308;8.914;2022-08-16T16:22:45;28.40;36.30
16032;DHT22;8120;48.308;8.914;2022-08-16T16:25:13;28.50;35.90
16032;DHT22;8120;48.308;8.914;2022-08-16T16:27:43;28.60;36.00
16032;DHT22;8120;48.308;8.914;2022-08-16T16:30:21;28.60;35.70
16032;DHT22;8120;48.308;8.914;2022-08-16T16:33:09;28.60;35.80